createdAt,value
2023-07-18T00:00:37.159Z,6.70
2023-07-18T00:01:38.921Z,5.40
2023-07-18T00:02:40.833Z,11.13
2023-07-18T00:04:43.914Z,6.05
2023-07-18T00:05:45.351Z,8.40
2023-07-18T00:06:46.922Z,5.65
2023-07-18T00:07:48.435Z,5.65
2023-07-18T00:08:49.913Z,6.70
2023-07-18T00:09:51.666Z,7.28
2023-07-18T00:10:53.089Z,5.40
2023-07-18T00:11:54.848Z,6.43
2023-07-18T00:12:56.504Z,7.45
2023-07-18T00:13:57.968Z,10.63
2023-07-18T00:15:00.998Z,7.63
2023-07-18T00:16:02.598Z,7.50
2023-07-18T00:17:04.212Z,9.00
2023-07-18T00:18:05.920Z,7.22
2023-07-18T00:19:07.429Z,6.30
2023-07-18T00:20:19.317Z,6.72
2023-07-18T00:21:21.047Z,7.30
2023-07-18T00:22:23.014Z,7.50
2023-07-18T00:23:24.551Z,6.43
2023-07-18T00:24:26.094Z,6.15
2023-07-18T00:25:27.695Z,7.07
2023-07-18T00:26:29.231Z,6.13
2023-07-18T00:27:30.708Z,6.53
2023-07-18T00:28:32.223Z,7.88
2023-07-18T00:29:33.659Z,9.00
2023-07-18T00:30:35.151Z,10.35
2023-07-18T00:31:37.317Z,7.35
2023-07-18T00:32:39.842Z,8.00
2023-07-18T00:33:41.884Z,7.57
2023-07-18T00:34:45.424Z,6.78
2023-07-18T00:35:47.313Z,8.18
2023-07-18T00:37:50.880Z,6.50
2023-07-18T00:38:53.551Z,9.70
2023-07-18T00:39:55.040Z,6.85
2023-07-18T00:40:56.527Z,7.00
2023-07-18T00:41:58.213Z,6.85
2023-07-18T00:42:59.714Z,7.05
2023-07-18T00:44:01.190Z,8.00
2023-07-18T00:45:02.735Z,7.38
2023-07-18T00:46:05.702Z,8.23
2023-07-18T00:47:08.667Z,7.70
2023-07-18T00:48:10.608Z,8.13
2023-07-18T00:49:12.625Z,9.65
2023-07-18T00:51:20.060Z,7.28
2023-07-18T00:52:22.832Z,8.38
2023-07-18T00:53:24.620Z,10.85
2023-07-18T00:54:27.636Z,7.20
2023-07-18T00:55:29.347Z,7.28
2023-07-18T00:56:31.373Z,7.78
2023-07-18T00:57:33.247Z,6.82
2023-07-18T00:59:38.970Z,8.35
2023-07-18T01:00:40.428Z,7.10
2023-07-18T01:01:42.227Z,8.45
2023-07-18T01:02:45.919Z,9.05
2023-07-18T01:03:47.586Z,6.40
2023-07-18T01:04:49.044Z,7.78
2023-07-18T01:05:50.581Z,7.72
2023-07-18T01:06:53.882Z,6.40
2023-07-18T01:07:55.394Z,8.57
2023-07-18T01:08:56.915Z,6.05
2023-07-18T01:10:33.846Z,10.77
2023-07-18T01:11:35.300Z,7.85
2023-07-18T01:12:36.761Z,6.97
2023-07-18T01:13:38.213Z,9.40
2023-07-18T01:14:41.489Z,10.63
2023-07-18T01:15:44.341Z,8.40
2023-07-18T01:16:45.848Z,10.55
2023-07-18T01:17:47.973Z,6.32
2023-07-18T01:18:49.517Z,9.25
2023-07-18T01:19:50.995Z,8.77
2023-07-18T01:20:53.624Z,6.43
2023-07-18T01:21:55.079Z,6.75
2023-07-18T01:23:02.376Z,9.63
2023-07-18T01:24:04.278Z,6.97
2023-07-18T01:25:05.978Z,6.53
2023-07-18T01:26:07.419Z,8.60
2023-07-18T01:27:08.918Z,6.10
2023-07-18T01:28:11.811Z,8.40
2023-07-18T01:29:13.369Z,10.73
2023-07-18T01:30:16.694Z,8.90
2023-07-18T01:31:18.272Z,7.90
2023-07-18T01:32:20.003Z,7.43
2023-07-18T01:33:21.617Z,8.65
2023-07-18T01:34:23.105Z,7.93
2023-07-18T01:35:27.043Z,7.15
2023-07-18T01:36:29.616Z,9.30
2023-07-18T01:37:31.107Z,9.20
2023-07-18T01:38:32.589Z,9.90
2023-07-18T01:39:34.048Z,8.88
2023-07-18T01:40:35.568Z,7.90
2023-07-18T01:41:37.057Z,8.98
2023-07-18T01:42:38.795Z,9.10
2023-07-18T01:43:40.282Z,9.63
2023-07-18T01:44:41.759Z,8.27
2023-07-18T01:45:43.319Z,8.48
2023-07-18T01:46:44.798Z,9.20
2023-07-18T01:47:47.738Z,7.88
2023-07-18T01:48:49.237Z,9.63
2023-07-18T01:49:50.723Z,10.38
2023-07-18T01:50:52.221Z,8.32
2023-07-18T01:51:53.717Z,9.70
2023-07-18T01:52:55.328Z,8.93
2023-07-18T01:53:56.794Z,10.85
2023-07-18T01:54:59.884Z,8.48
2023-07-18T01:56:01.364Z,7.65
2023-07-18T01:57:03.066Z,8.50
2023-07-18T01:58:04.579Z,10.52
2023-07-18T01:59:06.033Z,8.30
2023-07-18T02:00:12.651Z,9.73
2023-07-18T02:01:14.724Z,7.10
2023-07-18T02:02:16.584Z,9.45
2023-07-18T02:03:18.118Z,10.40
2023-07-18T02:04:19.594Z,9.98
2023-07-18T02:05:24.083Z,9.02
2023-07-18T02:06:26.170Z,9.27
2023-07-18T02:07:28.165Z,7.80
2023-07-18T02:08:29.650Z,8.70
2023-07-18T02:09:31.581Z,10.65
2023-07-18T02:10:33.322Z,8.90
2023-07-18T02:11:34.802Z,10.52
2023-07-18T02:12:36.413Z,10.13
2023-07-18T02:13:38.014Z,12.18
2023-07-18T02:14:39.757Z,9.70
2023-07-18T02:15:41.226Z,10.55
2023-07-18T02:16:42.740Z,12.13
2023-07-18T02:17:45.023Z,11.88
2023-07-18T02:18:46.657Z,9.68
2023-07-18T02:19:48.114Z,8.25
2023-07-18T02:20:49.563Z,9.27
2023-07-18T02:21:51.004Z,9.30
2023-07-18T02:22:52.919Z,8.35
2023-07-18T02:24:56.083Z,7.30
2023-07-18T02:25:57.558Z,8.05
2023-07-18T02:26:59.348Z,7.40
2023-07-18T02:28:00.770Z,10.15
2023-07-18T02:29:02.220Z,8.52
2023-07-18T02:30:04.617Z,9.60
2023-07-18T02:31:06.196Z,10.23
2023-07-18T02:32:07.950Z,9.88
2023-07-18T02:33:10.244Z,9.77
2023-07-18T02:34:11.779Z,11.30
2023-07-18T02:35:19.493Z,7.97
2023-07-18T02:36:23.172Z,10.15
2023-07-18T02:37:26.324Z,8.07
2023-07-18T02:38:27.865Z,10.98
2023-07-18T02:39:31.435Z,11.43
2023-07-18T02:40:32.917Z,12.70
2023-07-18T02:41:40.589Z,8.10
2023-07-18T02:42:42.023Z,10.30
2023-07-18T02:43:43.464Z,9.05
2023-07-18T02:44:46.196Z,11.20
2023-07-18T02:45:50.370Z,7.65
2023-07-18T02:46:52.278Z,8.82
2023-07-18T02:47:53.830Z,8.38
2023-07-18T02:48:55.360Z,9.18
2023-07-18T02:49:56.911Z,8.88
2023-07-18T02:50:58.387Z,9.93
2023-07-18T02:51:59.900Z,10.57
2023-07-18T02:53:01.508Z,11.43
2023-07-18T02:54:03.892Z,9.88
2023-07-18T02:55:05.972Z,10.45
2023-07-18T02:56:07.503Z,9.88
2023-07-18T02:57:08.984Z,8.57
2023-07-18T02:58:10.506Z,9.27
2023-07-18T02:59:11.976Z,11.13
2023-07-18T03:00:26.950Z,9.57
2023-07-18T03:01:28.726Z,11.10
2023-07-18T03:02:31.517Z,7.80
2023-07-18T03:03:35.511Z,9.70
2023-07-18T03:04:37.066Z,10.63
2023-07-18T03:05:38.977Z,11.57
2023-07-18T03:07:41.810Z,10.90
2023-07-18T03:08:43.425Z,10.18
2023-07-18T03:09:45.922Z,11.25
2023-07-18T03:10:48.274Z,8.75
2023-07-18T03:11:53.108Z,9.07
2023-07-18T03:12:55.164Z,11.38
2023-07-18T03:13:56.788Z,9.82
2023-07-18T03:14:58.210Z,11.32
2023-07-18T03:15:59.685Z,9.48
2023-07-18T03:17:01.320Z,11.35
2023-07-18T03:18:03.054Z,10.52
2023-07-18T03:19:04.670Z,11.73
2023-07-18T03:20:17.697Z,10.77
2023-07-18T03:21:19.627Z,8.60
2023-07-18T03:22:21.576Z,11.10
2023-07-18T03:23:23.049Z,10.75
2023-07-18T03:24:24.522Z,9.18
2023-07-18T03:25:26.562Z,8.73
2023-07-18T03:26:28.097Z,12.20
2023-07-18T03:27:29.576Z,12.10
2023-07-18T03:28:31.076Z,9.40
2023-07-18T03:29:32.643Z,8.93
2023-07-18T03:30:34.092Z,9.02
2023-07-18T03:31:35.563Z,12.65
2023-07-18T03:32:38.395Z,12.60
2023-07-18T03:33:39.887Z,10.90
2023-07-18T03:34:41.339Z,9.88
2023-07-18T03:35:42.835Z,9.65
2023-07-18T03:36:44.360Z,11.57
2023-07-18T03:37:45.928Z,8.90
2023-07-18T03:38:47.403Z,9.85
2023-07-18T03:39:48.828Z,9.45
2023-07-18T03:40:51.241Z,10.38
2023-07-18T03:41:53.087Z,9.73
2023-07-18T03:42:54.518Z,9.02
2023-07-18T03:43:56.174Z,11.68
2023-07-18T03:44:57.641Z,9.18
2023-07-18T03:45:59.112Z,10.98
2023-07-18T03:47:11.144Z,8.68
2023-07-18T03:48:21.018Z,14.02
2023-07-18T03:49:22.521Z,8.05
2023-07-18T03:50:24.808Z,10.38
2023-07-18T03:51:28.483Z,13.73
2023-07-18T03:52:32.708Z,12.55
2023-07-18T03:53:34.372Z,9.57
2023-07-18T03:54:35.826Z,11.43
2023-07-18T03:55:37.923Z,12.23
2023-07-18T03:56:39.497Z,14.07
2023-07-18T03:57:41.382Z,12.02
2023-07-18T03:59:44.677Z,10.43
2023-07-18T04:00:46.340Z,11.23
2023-07-18T04:01:48.244Z,13.02
2023-07-18T04:03:51.659Z,9.57
2023-07-18T04:04:53.596Z,12.57
2023-07-18T04:06:56.542Z,10.98
2023-07-18T04:07:58.115Z,15.13
2023-07-18T04:08:59.820Z,10.07
2023-07-18T04:10:01.382Z,9.70
2023-07-18T04:11:02.900Z,10.95
2023-07-18T04:12:05.082Z,11.82
2023-07-18T04:13:06.541Z,12.02
2023-07-18T04:14:08.010Z,13.93
2023-07-18T04:15:11.046Z,10.43
2023-07-18T04:16:13.122Z,11.48
2023-07-18T04:17:14.941Z,12.88
2023-07-18T04:18:16.525Z,12.60
2023-07-18T04:19:17.966Z,13.50
2023-07-18T04:20:21.000Z,11.43
2023-07-18T04:21:22.769Z,12.48
2023-07-18T04:22:24.257Z,10.32
2023-07-18T04:23:25.853Z,12.15
2023-07-18T04:24:27.343Z,11.10
2023-07-18T04:25:35.962Z,12.07
2023-07-18T04:26:37.507Z,8.95
2023-07-18T04:27:38.990Z,11.88
2023-07-18T04:28:40.881Z,12.38
2023-07-18T04:30:44.043Z,11.18
2023-07-18T04:31:46.249Z,8.30
2023-07-18T04:32:48.149Z,10.35
2023-07-18T04:33:49.805Z,10.98
2023-07-18T04:34:51.361Z,9.70
2023-07-18T04:35:52.863Z,8.32
2023-07-18T04:36:54.353Z,11.73
2023-07-18T04:37:55.876Z,8.38
2023-07-18T04:38:57.387Z,7.47
2023-07-18T04:39:58.853Z,9.20
2023-07-18T04:41:00.857Z,8.23
2023-07-18T04:42:02.772Z,8.88
2023-07-18T04:44:05.666Z,8.05
2023-07-18T04:45:07.405Z,8.20
2023-07-18T04:46:09.417Z,10.07
2023-07-18T04:47:10.916Z,9.75
2023-07-18T04:48:17.587Z,9.15
2023-07-18T04:49:20.133Z,9.63
2023-07-18T04:50:21.899Z,7.30
2023-07-18T04:51:25.555Z,10.07
2023-07-18T04:52:27.150Z,8.73
2023-07-18T04:53:29.940Z,10.05
2023-07-18T04:54:31.605Z,9.93
2023-07-18T04:55:33.166Z,8.80
2023-07-18T04:56:34.710Z,11.50
2023-07-18T04:57:36.258Z,9.75
2023-07-18T04:58:37.732Z,7.95
2023-07-18T04:59:39.285Z,8.52
2023-07-18T05:00:40.725Z,8.82
2023-07-18T05:01:42.353Z,11.63
2023-07-18T05:02:43.944Z,8.45
2023-07-18T05:03:57.360Z,8.23
2023-07-18T05:04:59.795Z,9.82
2023-07-18T05:06:01.223Z,11.55
2023-07-18T05:07:02.754Z,9.02
2023-07-18T05:08:04.695Z,10.20
2023-07-18T05:09:06.171Z,8.77
2023-07-18T05:10:08.694Z,9.25
2023-07-18T05:11:10.158Z,9.63
2023-07-18T05:12:11.621Z,9.77
2023-07-18T05:13:13.144Z,8.93
2023-07-18T05:14:14.621Z,9.73
2023-07-18T05:15:16.117Z,11.70
2023-07-18T05:16:17.755Z,8.95
2023-07-18T05:17:19.448Z,9.02
2023-07-18T05:18:21.335Z,7.30
2023-07-18T05:20:24.134Z,10.88
2023-07-18T05:21:25.650Z,9.77
2023-07-18T05:22:27.225Z,9.10
2023-07-18T05:23:28.734Z,8.10
2023-07-18T05:24:30.170Z,9.45
2023-07-18T05:25:31.610Z,8.93
2023-07-18T05:26:33.070Z,10.07
2023-07-18T05:27:35.036Z,6.35
2023-07-18T05:28:36.591Z,8.73
2023-07-18T05:29:38.271Z,9.73
2023-07-18T05:30:39.706Z,8.70
2023-07-18T05:31:41.277Z,7.78
2023-07-18T05:32:43.441Z,12.05
2023-07-18T05:33:44.974Z,9.70
2023-07-18T05:34:46.420Z,9.13
2023-07-18T05:35:48.495Z,10.75
2023-07-18T05:36:50.540Z,9.98
2023-07-18T05:37:51.994Z,9.45
2023-07-18T05:38:53.447Z,10.13
2023-07-18T05:39:54.916Z,11.05
2023-07-18T05:40:56.354Z,10.38
2023-07-18T05:41:58.540Z,10.35
2023-07-18T05:43:00.082Z,8.80
2023-07-18T05:44:01.566Z,9.45
2023-07-18T05:45:03.143Z,12.27
2023-07-18T05:46:04.637Z,10.55
2023-07-18T05:47:06.359Z,9.93
2023-07-18T05:48:08.021Z,9.40
2023-07-18T05:49:09.572Z,8.90
2023-07-18T05:50:11.537Z,10.82
2023-07-18T05:51:12.990Z,10.35
2023-07-18T05:52:14.472Z,9.38
2023-07-18T05:53:15.982Z,9.32
2023-07-18T05:54:17.452Z,9.68
2023-07-18T05:55:19.203Z,11.45
2023-07-18T05:56:20.750Z,9.25
2023-07-18T05:57:22.283Z,10.95
2023-07-18T05:58:23.727Z,11.40
2023-07-18T05:59:26.405Z,13.00
2023-07-18T06:00:27.867Z,11.77
2023-07-18T06:01:29.357Z,10.48
2023-07-18T06:02:30.913Z,10.32
2023-07-18T06:03:32.507Z,9.23
2023-07-18T06:04:36.322Z,10.98
2023-07-18T06:05:37.934Z,10.65
2023-07-18T06:06:39.962Z,10.80
2023-07-18T06:07:41.872Z,10.90
2023-07-18T06:08:43.562Z,9.25
2023-07-18T06:09:45.155Z,7.65
2023-07-18T06:10:46.628Z,9.18
2023-07-18T06:11:48.095Z,12.02
2023-07-18T06:12:50.729Z,11.52
2023-07-18T06:13:52.551Z,10.07
2023-07-18T06:15:57.487Z,9.27
2023-07-18T06:16:59.217Z,10.30
2023-07-18T06:18:00.817Z,8.55
2023-07-18T06:19:02.501Z,10.57
2023-07-18T06:20:09.769Z,17.25
2023-07-18T06:21:11.274Z,11.98
2023-07-18T06:22:13.372Z,12.68
2023-07-18T06:23:15.455Z,12.57
2023-07-18T06:24:19.301Z,13.00
2023-07-18T06:25:22.134Z,8.52
2023-07-18T06:26:23.923Z,8.98
2023-07-18T06:27:27.817Z,11.88
2023-07-18T06:28:29.326Z,11.75
2023-07-18T06:29:32.162Z,7.78
2023-07-18T06:30:33.848Z,10.55
2023-07-18T06:31:36.551Z,9.10
2023-07-18T06:32:40.220Z,7.32
2023-07-18T06:33:42.273Z,10.40
2023-07-18T06:35:52.824Z,11.55
2023-07-18T06:36:54.391Z,11.88
2023-07-18T06:37:55.984Z,12.13
2023-07-18T06:38:57.539Z,8.18
2023-07-18T06:39:59.054Z,10.68
2023-07-18T06:41:00.975Z,9.93
2023-07-18T06:43:04.344Z,8.98
2023-07-18T06:44:06.706Z,10.05
2023-07-18T06:45:08.619Z,9.15
2023-07-18T06:47:11.532Z,11.25
2023-07-18T06:48:14.012Z,8.27
2023-07-18T06:49:16.602Z,9.40
2023-07-18T06:50:18.119Z,8.38
2023-07-18T06:51:19.901Z,10.65
2023-07-18T06:52:22.005Z,8.07
2023-07-18T06:53:23.858Z,9.65
2023-07-18T06:55:26.779Z,7.38
2023-07-18T06:56:28.252Z,8.98
2023-07-18T06:57:29.757Z,9.60
2023-07-18T06:58:31.229Z,8.57
2023-07-18T06:59:32.688Z,7.20
2023-07-18T07:00:34.250Z,10.07
2023-07-18T07:01:36.051Z,7.38
2023-07-18T07:03:39.739Z,10.50
2023-07-18T07:04:41.293Z,10.02
2023-07-18T07:05:43.955Z,8.50
2023-07-18T07:06:45.484Z,7.82
2023-07-18T07:07:48.270Z,7.00
2023-07-18T07:08:49.766Z,7.65
2023-07-18T07:09:51.223Z,9.30
2023-07-18T07:11:03.413Z,12.40
2023-07-18T07:12:05.502Z,9.27
2023-07-18T07:13:07.892Z,10.07
2023-07-18T07:14:09.644Z,9.13
2023-07-18T07:15:11.669Z,10.32
2023-07-18T07:16:13.248Z,8.73
2023-07-18T07:17:14.820Z,8.85
2023-07-18T07:18:16.312Z,9.48
2023-07-18T07:19:18.226Z,8.13
2023-07-18T07:21:22.162Z,7.63
2023-07-18T07:22:23.922Z,8.23
2023-07-18T07:23:25.678Z,12.13
2023-07-18T07:24:27.438Z,12.82
2023-07-18T07:25:31.159Z,10.48
2023-07-18T07:26:33.212Z,9.02
2023-07-18T07:27:34.642Z,12.52
2023-07-18T07:28:36.673Z,7.65
2023-07-18T07:29:41.253Z,9.60
2023-07-18T07:30:42.740Z,14.73
2023-07-18T07:31:44.335Z,11.40
2023-07-18T07:32:48.833Z,9.35
2023-07-18T07:33:50.473Z,9.60
2023-07-18T07:34:51.938Z,9.65
2023-07-18T07:35:53.406Z,9.63
2023-07-18T07:36:54.849Z,8.13
2023-07-18T07:37:56.353Z,8.68
2023-07-18T07:38:57.832Z,8.73
2023-07-18T07:39:59.375Z,8.93
2023-07-18T07:41:00.881Z,10.70
2023-07-18T07:42:02.440Z,9.75
2023-07-18T07:43:03.953Z,9.93
2023-07-18T07:44:05.531Z,7.10
2023-07-18T07:45:08.208Z,9.82
2023-07-18T07:46:09.795Z,8.77
2023-07-18T07:47:11.410Z,8.35
2023-07-18T07:48:12.930Z,9.25
2023-07-18T07:49:14.447Z,7.07
2023-07-18T07:50:16.206Z,7.57
2023-07-18T07:52:20.129Z,7.97
2023-07-18T07:53:21.623Z,7.60
2023-07-18T07:54:23.104Z,9.18
2023-07-18T07:55:24.765Z,8.57
2023-07-18T07:56:26.459Z,10.23
2023-07-18T07:57:29.227Z,16.85
2023-07-18T07:58:30.777Z,10.00
2023-07-18T07:59:32.267Z,7.97
2023-07-18T08:00:33.752Z,8.32
2023-07-18T08:01:35.259Z,10.65
2023-07-18T08:02:36.855Z,7.93
2023-07-18T08:03:39.064Z,10.32
2023-07-18T08:04:42.766Z,10.10
2023-07-18T08:05:44.495Z,8.07
2023-07-18T08:06:46.662Z,10.75
2023-07-18T08:07:48.140Z,7.30
2023-07-18T08:08:49.616Z,6.80
2023-07-18T08:09:51.239Z,7.07
2023-07-18T08:10:53.351Z,7.28
2023-07-18T08:11:54.791Z,7.63
2023-07-18T08:12:56.292Z,10.35
2023-07-18T08:13:57.842Z,7.63
2023-07-18T08:14:59.367Z,8.02
2023-07-18T08:16:00.942Z,8.98
2023-07-18T08:17:02.999Z,8.68
2023-07-18T08:18:04.650Z,8.13
2023-07-18T08:19:06.459Z,6.43
2023-07-18T08:21:10.883Z,6.22
2023-07-18T08:22:12.378Z,8.75
2023-07-18T08:23:15.967Z,6.13
2023-07-18T08:24:18.224Z,7.05
2023-07-18T08:25:19.803Z,8.65
2023-07-18T08:26:21.235Z,9.60
2023-07-18T08:27:22.770Z,7.43
2023-07-18T08:28:24.258Z,10.27
2023-07-18T08:29:28.237Z,6.82
2023-07-18T08:30:29.792Z,7.00
2023-07-18T08:31:31.286Z,8.38
2023-07-18T08:32:32.841Z,6.18
2023-07-18T08:33:34.361Z,8.15
2023-07-18T08:34:36.892Z,7.90
2023-07-18T08:35:39.511Z,6.60
2023-07-18T08:36:41.001Z,7.43
2023-07-18T08:37:42.591Z,7.47
2023-07-18T08:38:51.226Z,7.03
2023-07-18T08:39:52.873Z,7.60
2023-07-18T08:40:54.332Z,10.02
2023-07-18T08:41:58.985Z,5.68
2023-07-18T08:43:00.690Z,9.13
2023-07-18T08:44:04.262Z,8.68
2023-07-18T08:45:09.896Z,10.00
2023-07-18T08:46:14.637Z,8.90
2023-07-18T08:47:17.253Z,5.15
2023-07-18T08:48:18.772Z,7.38
2023-07-18T08:49:22.426Z,8.95
2023-07-18T08:50:26.224Z,8.07
2023-07-18T08:51:29.327Z,6.82
2023-07-18T08:52:30.936Z,7.68
2023-07-18T08:53:32.659Z,6.75
2023-07-18T08:54:35.482Z,5.43
2023-07-18T08:55:37.704Z,6.32
2023-07-18T08:56:44.911Z,6.63
2023-07-18T08:57:47.347Z,7.00
2023-07-18T08:58:48.898Z,11.70
2023-07-18T08:59:50.652Z,6.22
2023-07-18T09:00:52.078Z,6.45
2023-07-18T09:01:54.417Z,8.68
2023-07-18T09:02:56.163Z,6.82
2023-07-18T09:04:59.232Z,6.32
2023-07-18T09:06:21.162Z,6.63
2023-07-18T09:07:28.108Z,8.43
2023-07-18T09:08:40.854Z,4.97
2023-07-18T09:09:48.556Z,7.85
2023-07-18T09:11:03.335Z,5.70
2023-07-18T09:12:06.201Z,7.15
2023-07-18T09:13:09.068Z,5.80
2023-07-18T09:14:23.059Z,6.60
2023-07-18T09:15:24.594Z,5.90
2023-07-18T09:16:26.224Z,6.35
2023-07-18T09:17:28.463Z,7.85
2023-07-18T09:18:29.992Z,7.80
2023-07-18T09:19:41.781Z,5.90
2023-07-18T09:20:43.242Z,10.07
2023-07-18T09:21:44.829Z,8.25
2023-07-18T09:22:46.369Z,6.45
2023-07-18T09:23:48.604Z,5.65
2023-07-18T09:24:50.075Z,6.13
2023-07-18T09:25:51.604Z,7.20
2023-07-18T09:26:56.564Z,6.88
2023-07-18T09:27:59.284Z,5.80
2023-07-18T09:29:02.216Z,9.32
2023-07-18T09:30:04.026Z,6.28
2023-07-18T09:32:24.669Z,6.57
2023-07-18T09:33:26.458Z,4.97
2023-07-18T09:35:30.113Z,6.43
2023-07-18T09:36:31.941Z,7.57
2023-07-18T09:37:46.680Z,8.85
2023-07-18T09:38:49.726Z,6.78
2023-07-18T09:39:52.159Z,4.25
2023-07-18T09:40:55.601Z,6.93
2023-07-18T09:41:57.790Z,7.55
2023-07-18T09:43:01.523Z,6.80
2023-07-18T09:44:22.332Z,8.70
2023-07-18T09:45:28.642Z,8.70
2023-07-18T09:46:30.590Z,6.18
2023-07-18T09:47:34.131Z,5.25
2023-07-18T09:48:44.688Z,7.22
2023-07-18T09:49:47.361Z,9.98
2023-07-18T09:50:52.200Z,4.50
2023-07-18T09:52:05.442Z,8.70
2023-07-18T09:53:12.261Z,5.22
2023-07-18T09:54:15.791Z,7.65
2023-07-18T09:55:28.315Z,6.93
2023-07-18T09:56:33.977Z,5.20
2023-07-18T09:57:38.470Z,5.28
2023-07-18T09:58:40.461Z,5.82
2023-07-18T09:59:41.995Z,6.15
2023-07-18T10:00:46.225Z,7.10
2023-07-18T10:01:55.380Z,4.22
2023-07-18T10:02:57.507Z,6.18
2023-07-18T10:04:00.201Z,7.50
2023-07-18T10:05:06.418Z,4.15
2023-07-18T10:06:15.950Z,6.72
2023-07-18T10:07:18.420Z,6.38
2023-07-18T10:08:20.444Z,6.15
2023-07-18T10:09:24.377Z,5.53
2023-07-18T10:10:26.230Z,7.72
2023-07-18T10:12:29.429Z,4.63
2023-07-18T10:13:40.809Z,4.88
2023-07-18T10:14:58.143Z,5.10
2023-07-18T10:16:14.874Z,6.38
2023-07-18T10:17:48.651Z,6.30
2023-07-18T10:18:51.971Z,5.18
2023-07-18T10:19:53.443Z,6.88
2023-07-18T10:21:01.787Z,4.75
2023-07-18T10:22:03.723Z,4.85
2023-07-18T10:23:06.316Z,8.63
2023-07-18T10:24:24.644Z,3.63
2023-07-18T10:25:31.080Z,6.57
2023-07-18T10:26:33.999Z,5.60
2023-07-18T10:27:40.825Z,5.15
2023-07-18T10:28:46.972Z,6.85
2023-07-18T10:30:09.488Z,4.20
2023-07-18T10:31:31.129Z,7.78
2023-07-18T10:32:34.174Z,7.35
2023-07-18T10:33:35.759Z,4.85
2023-07-18T10:34:40.628Z,4.07
2023-07-18T10:35:42.979Z,4.63
2023-07-18T10:36:58.927Z,4.88
2023-07-18T10:38:04.318Z,4.88
2023-07-18T10:39:16.042Z,5.28
2023-07-18T10:40:37.308Z,4.15
2023-07-18T10:41:46.568Z,5.00
2023-07-18T10:42:48.051Z,6.20
2023-07-18T10:43:49.496Z,4.63
2023-07-18T10:45:01.914Z,4.13
2023-07-18T10:46:08.222Z,4.45
2023-07-18T10:47:13.907Z,4.38
2023-07-18T10:48:21.849Z,4.72
2023-07-18T10:49:32.649Z,4.57
2023-07-18T10:50:35.267Z,4.72
2023-07-18T10:51:36.773Z,5.75
2023-07-18T10:52:38.512Z,4.10
2023-07-18T10:54:56.417Z,5.47
2023-07-18T10:55:58.932Z,4.68
2023-07-18T10:57:01.068Z,3.30
2023-07-18T10:58:02.564Z,8.25
2023-07-18T10:59:04.171Z,4.10
2023-07-18T11:00:07.670Z,4.93
2023-07-18T11:01:10.189Z,4.72
2023-07-18T11:02:12.810Z,5.70
2023-07-18T11:03:24.710Z,4.25
2023-07-18T11:04:26.533Z,5.85
2023-07-18T11:06:29.737Z,7.53
2023-07-18T11:07:36.144Z,5.07
2023-07-18T11:08:38.784Z,7.18
2023-07-18T11:09:42.417Z,4.57
2023-07-18T11:10:43.942Z,4.15
2023-07-18T11:11:45.434Z,6.50
2023-07-18T11:12:46.916Z,5.28
2023-07-18T11:13:48.393Z,4.75
2023-07-18T11:14:49.824Z,5.57
2023-07-18T11:15:51.318Z,3.92
2023-07-18T11:16:54.319Z,3.75
2023-07-18T11:17:56.052Z,4.28
2023-07-18T11:20:02.947Z,3.65
2023-07-18T11:21:08.198Z,5.90
2023-07-18T11:22:14.400Z,3.72
2023-07-18T11:23:16.096Z,4.28
2023-07-18T11:24:17.881Z,5.78
2023-07-18T11:26:21.086Z,3.40
2023-07-18T11:28:33.619Z,4.75
2023-07-18T11:29:35.073Z,5.30
2023-07-18T11:30:36.785Z,5.32
2023-07-18T11:32:46.909Z,4.35
2023-07-18T11:33:53.472Z,6.13
2023-07-18T11:34:59.449Z,5.43
2023-07-18T11:36:01.260Z,4.57
2023-07-18T11:37:02.795Z,6.15
2023-07-18T11:38:04.322Z,5.00
2023-07-18T11:39:21.256Z,4.70
2023-07-18T11:40:26.967Z,4.03
2023-07-18T11:41:41.830Z,4.20
2023-07-18T11:42:51.184Z,5.47
2023-07-18T11:43:55.581Z,5.05
2023-07-18T11:44:57.050Z,5.35
2023-07-18T11:45:58.542Z,4.47
2023-07-18T11:47:00.001Z,5.88
2023-07-18T11:48:01.871Z,6.30
2023-07-18T11:49:04.428Z,4.45
2023-07-18T11:50:10.894Z,3.70
2023-07-18T11:51:12.816Z,4.57
2023-07-18T11:52:19.146Z,6.70
2023-07-18T11:53:27.646Z,4.55
2023-07-18T11:54:29.361Z,5.30
2023-07-18T11:55:32.221Z,5.20
2023-07-18T11:56:35.768Z,6.13
2023-07-18T11:57:37.619Z,4.70
2023-07-18T11:58:39.529Z,5.68
2023-07-18T11:59:41.016Z,5.70
2023-07-18T12:00:42.485Z,5.68
2023-07-18T12:01:44.482Z,6.70
2023-07-18T12:02:46.441Z,6.20
2023-07-18T12:03:51.605Z,5.88
2023-07-18T12:04:53.786Z,6.25
2023-07-18T12:05:55.336Z,3.83
2023-07-18T12:06:58.529Z,5.07
2023-07-18T12:08:00.069Z,5.88
2023-07-18T12:09:01.566Z,6.40
2023-07-18T12:10:08.010Z,4.40
2023-07-18T12:11:11.157Z,6.88
2023-07-18T12:12:12.693Z,4.22
2023-07-18T12:13:14.148Z,4.03
2023-07-18T12:14:15.760Z,4.90
2023-07-18T12:15:17.222Z,3.63
2023-07-18T12:16:18.735Z,5.25
2023-07-18T12:17:21.022Z,4.07
2023-07-18T12:18:22.564Z,3.30
2023-07-18T12:19:24.131Z,4.30
2023-07-18T12:20:27.050Z,4.85
2023-07-18T12:21:28.611Z,5.05
2023-07-18T12:22:30.342Z,4.82
2023-07-18T12:23:31.864Z,4.45
2023-07-18T12:24:33.669Z,5.28
2023-07-18T12:25:35.127Z,3.25
2023-07-18T12:26:36.727Z,4.18
2023-07-18T12:27:38.214Z,3.65
2023-07-18T12:28:39.726Z,4.90
2023-07-18T12:29:41.283Z,4.28
2023-07-18T12:30:43.131Z,3.90
2023-07-18T12:31:50.654Z,5.88
2023-07-18T12:32:52.379Z,4.95
2023-07-18T12:33:53.906Z,3.58
2023-07-18T12:34:55.463Z,3.50
2023-07-18T12:35:58.299Z,4.25
2023-07-18T12:37:00.452Z,4.80
2023-07-18T12:38:02.461Z,4.45
2023-07-18T12:39:04.122Z,4.28
2023-07-18T12:40:06.650Z,10.02
2023-07-18T12:41:09.309Z,4.15
2023-07-18T12:42:10.811Z,5.00
2023-07-18T12:43:12.304Z,8.10
2023-07-18T12:44:24.335Z,6.57
2023-07-18T12:45:29.966Z,4.65
2023-07-18T12:46:32.058Z,5.32
2023-07-18T12:47:33.552Z,5.95
2023-07-18T12:48:35.087Z,4.22
2023-07-18T12:50:41.716Z,3.60
2023-07-18T12:51:43.256Z,4.88
2023-07-18T12:52:44.753Z,5.07
2023-07-18T12:53:46.223Z,5.13
2023-07-18T12:54:47.739Z,3.53
2023-07-18T12:55:49.262Z,4.85
2023-07-18T12:56:50.842Z,6.05
2023-07-18T12:57:52.452Z,4.65
2023-07-18T12:58:53.900Z,4.85
2023-07-18T12:59:55.511Z,7.30
2023-07-18T13:00:56.991Z,4.95
2023-07-18T13:01:59.198Z,4.18
2023-07-18T13:03:00.756Z,4.30
2023-07-18T13:04:04.381Z,4.05
2023-07-18T13:05:05.901Z,5.22
2023-07-18T13:06:09.220Z,3.55
2023-07-18T13:07:10.755Z,2.50
2023-07-18T13:08:12.347Z,3.85
2023-07-18T13:09:13.788Z,4.25
2023-07-18T13:10:15.284Z,4.15
2023-07-18T13:11:16.785Z,7.78
2023-07-18T13:12:18.290Z,4.68
2023-07-18T13:13:19.768Z,3.70
2023-07-18T13:14:21.859Z,5.55
2023-07-18T13:15:23.384Z,4.68
2023-07-18T13:16:24.891Z,5.13
2023-07-18T13:17:26.456Z,4.75
2023-07-18T13:18:27.990Z,5.22
2023-07-18T13:19:29.593Z,4.90
2023-07-18T13:20:31.101Z,3.97
2023-07-18T13:21:33.104Z,4.45
2023-07-18T13:22:34.623Z,4.32
2023-07-18T13:23:36.119Z,4.47
2023-07-18T13:24:37.587Z,4.03
2023-07-18T13:25:39.116Z,7.25
2023-07-18T13:26:42.192Z,3.95
2023-07-18T13:27:44.263Z,4.60
2023-07-18T13:28:45.732Z,4.32
2023-07-18T13:29:47.265Z,4.43
2023-07-18T13:30:48.764Z,4.00
2023-07-18T13:31:51.884Z,7.95
2023-07-18T13:32:53.416Z,6.00
2023-07-18T13:33:55.190Z,6.60
2023-07-18T13:34:56.713Z,6.43
2023-07-18T13:35:59.403Z,5.55
2023-07-18T13:37:01.173Z,4.53
2023-07-18T13:39:04.350Z,7.40
2023-07-18T13:41:12.107Z,6.22
2023-07-18T13:42:13.855Z,5.15
2023-07-18T13:43:16.498Z,5.93
2023-07-18T13:44:19.017Z,3.53
2023-07-18T13:45:21.406Z,3.53
2023-07-18T13:46:24.162Z,3.72
2023-07-18T13:47:27.319Z,9.95
2023-07-18T13:48:30.397Z,5.78
2023-07-18T13:50:39.137Z,4.65
2023-07-18T13:51:40.956Z,6.47
2023-07-18T13:52:42.484Z,5.57
2023-07-18T13:53:43.978Z,7.68
2023-07-18T13:54:45.462Z,2.40
2023-07-18T13:55:48.460Z,4.65
2023-07-18T13:56:49.963Z,10.68
2023-07-18T13:57:51.419Z,4.93
2023-07-18T13:58:53.890Z,2.72
2023-07-18T13:59:55.327Z,3.60
2023-07-18T14:00:58.291Z,2.65
2023-07-18T14:01:59.887Z,3.83
2023-07-18T14:03:01.488Z,2.85
2023-07-18T14:04:03.060Z,3.97
2023-07-18T14:05:05.836Z,5.10
2023-07-18T14:06:07.355Z,6.18
2023-07-18T14:07:08.864Z,4.80
2023-07-18T14:08:10.399Z,4.88
2023-07-18T14:09:12.046Z,4.32
2023-07-18T14:11:15.140Z,3.90
2023-07-18T14:12:16.593Z,4.25
2023-07-18T14:13:19.261Z,6.00
2023-07-18T14:14:20.895Z,3.05
2023-07-18T14:15:22.493Z,3.63
2023-07-18T14:16:24.227Z,3.92
2023-07-18T14:17:28.317Z,2.42
2023-07-18T14:18:31.377Z,3.40
2023-07-18T14:19:32.844Z,2.13
2023-07-18T14:20:34.315Z,3.85
2023-07-18T14:21:35.823Z,3.33
2023-07-18T14:22:37.373Z,3.10
2023-07-18T14:23:38.915Z,4.65
2023-07-18T14:24:40.422Z,5.70
2023-07-18T14:25:41.868Z,2.35
2023-07-18T14:26:44.968Z,4.10
2023-07-18T14:27:46.567Z,4.53